Time;durP1;ratioP1;P1;durP2;ratioP2;P2;SDS_P1;SDS_P2;PMS_P1;PMS_P2;Temp;Humidity;BMP_temperature;BMP_pressure;BME280_temperature;BME280_humidity;BME280_pressure;Samples;Min_cycle;Max_cycle;Signal;HPM_P1;HPM_P2
2021/08/05 00:02:12;;;;;;;7.78;3.20;;;;;;;23.28;44.39;98129.34;5070680;28;20036;-90
2021/08/05 00:04:38;;;;;;;8.40;3.30;;;;;;;23.28;44.36;98119.34;5073411;28;20047;-89
2021/08/05 00:07:07;;;;;;;6.53;3.33;;;;;;;23.30;44.33;98121.94;5072374;28;20040;-88
2021/08/05 00:09:33;;;;;;;;;;;;;;;23.28;44.61;98123.94;5073595;28;20048;-87
2021/08/05 00:11:59;;;;;;;;;;;;;;;23.28;44.88;98135.63;5073611;28;19924;-89
2021/08/05 00:14:26;;;;;;;;;;;;;;;23.31;45.37;98132.66;5072828;28;19927;-89
2021/08/05 00:16:51;;;;;;;;;;;;;;;23.32;44.95;98119.94;5070131;28;19965;-89
2021/08/05 00:19:17;;;;;;;;;;;;;;;23.27;44.66;98117.66;5073367;28;19928;-89
2021/08/05 00:21:43;;;;;;;;;;;;;;;23.19;44.52;98122.91;5072393;28;19920;-89
2021/08/05 00:24:08;;;;;;;;;;;;;;;23.16;45.39;98123.16;5072736;28;19920;-88
2021/08/05 00:26:34;;;;;;;;;;;;;;;23.06;45.58;98120.41;5072648;28;20475;-90
2021/08/05 00:28:59;;;;;;;;;;;;;;;23.02;45.49;98128.97;5072326;28;19943;-89
2021/08/05 00:31:26;;;;;;;;;;;;;;;23.00;45.77;98145.38;5069385;28;20460;-89
2021/08/05 00:33:52;;;;;;;;;;;;;;;22.96;45.86;98154.72;5071376;28;19942;-89
2021/08/05 00:36:18;;;;;;;;;;;;;;;22.88;46.34;98146.41;5071557;28;19924;-89
2021/08/05 00:38:43;;;;;;;;;;;;;;;22.86;46.40;98154.69;5071631;28;19951;-89
2021/08/05 00:41:09;;;;;;;;;;;;;;;22.81;46.76;98146.06;5071916;28;19947;-90
2021/08/05 00:43:34;;;;;;;;;;;;;;;22.76;47.33;98138.34;5071833;28;19935;-90
2021/08/05 00:46:00;;;;;;;;;;;;;;;22.74;48.00;98131.34;5069342;28;19920;-90
2021/08/05 00:48:27;;;;;;;;;;;;;;;22.70;48.74;98138.88;5072137;28;19977;-87
2021/08/05 00:50:52;;;;;;;;;;;;;;;22.72;48.49;98141.47;5072311;28;20562;-88
2021/08/05 00:53:18;;;;;;;;;;;;;;;22.68;48.98;98156.28;5072508;28;20030;-89
2021/08/05 00:55:44;;;;;;;;;;;;;;;22.65;48.90;98164.69;5069244;28;19971;-88
2021/08/05 00:58:10;;;;;;;;;;;;;;;22.66;48.91;98169.09;5071401;28;19928;-91
2021/08/05 01:00:36;;;;;;;;;;;;;;;22.63;49.09;98175.66;5069601;28;19928;-93
2021/08/05 01:03:03;;;;;;;;;;;;;;;22.69;49.09;98185.09;5072176;28;19920;-89
2021/08/05 01:05:35;;;;;;;;;;;;;;;22.66;49.12;98178.09;5072261;28;19927;-88
2021/08/05 01:08:05;;;;;;;;;;;;;;;22.67;49.38;98171.69;5070326;28;19927;-90
2021/08/05 01:10:37;;;;;;;;;;;;;;;22.67;49.40;98146.44;5071566;28;20015;-92
2021/08/05 01:13:11;;;;;;;;;;;;;;;22.71;49.88;98140.63;5070776;28;19920;-89
2021/08/05 01:15:37;;;;;;;;;;;;;;;22.59;50.43;98149.78;5065156;28;19921;-90
2021/08/05 01:18:05;;;;;;;;;;;;;;;22.54;51.00;98152.91;5072221;28;20656;-90
2021/08/05 01:20:32;;;;;;;;;;;;;;;22.52;51.31;98141.34;5071763;28;19931;-89
2021/08/05 01:23:09;;;;;;;;;;;;;;;22.55;51.14;98149.22;5070838;28;19925;-88
2021/08/05 01:25:41;;;;;;;;;;;;;;;22.55;51.34;98156.47;5070753;28;20356;-91
2021/08/05 01:28:09;;;;;;;;;;;;;;;22.55;51.22;98149.22;5071548;28;19929;-89
2021/08/05 01:30:35;;;;;;;;;;;;;;;22.43;52.08;98163.81;5069106;28;19924;-88
2021/08/05 01:33:00;;;;;;;;;;;;;;;22.32;52.37;98166.59;5072015;28;19921;-90
2021/08/05 01:35:27;;;;;;;;;;;;;;;22.11;52.98;98156.53;5071526;28;19921;-88
2021/08/05 01:37:54;;;;;;;;;;;;;;;21.98;53.17;98146.88;5071430;28;20394;-90
2021/08/05 01:40:19;;;;;;;;;;;;;;;21.88;53.28;98146.75;5071450;28;19924;-89
2021/08/05 01:42:45;;;;;;;;;;;;;;;21.87;52.04;98137.78;5071814;28;19924;-89
2021/08/05 01:45:13;;;;;;;;;;;;;;;21.86;51.38;98148.75;5069813;28;20297;-89
2021/08/05 01:47:39;;;;;;;;;;;;;;;21.91;51.50;98150.09;5071860;28;19924;-91
2021/08/05 01:50:05;;;;;;;;;;;;;;;21.90;51.35;98142.97;5071746;28;20772;-89
2021/08/05 01:52:31;;;;;;;;;;;;;;;21.92;51.18;98142.81;5071164;28;19956;-87
2021/08/05 01:54:56;;;;;;;;;;;;;;;21.76;51.39;98148.66;5071269;28;19997;-91
2021/08/05 01:57:22;;;;;;;;;;;;;;;21.59;52.36;98146.50;5071525;28;19927;-91
2021/08/05 01:59:47;;;;;;;;;;;;;;;21.51;52.31;98139.88;5071220;28;19977;-90
2021/08/05 02:02:14;;;;;;;;;;;;;;;21.41;52.60;98151.53;5068603;28;19920;-91
2021/08/05 02:04:52;;;;;;;;;;;;;;;21.36;53.05;98149.19;5071693;28;19921;-90
2021/08/05 02:07:21;;;;;;;;;;;;;;;21.26;53.63;98142.81;5071096;28;19924;-90
2021/08/05 02:09:48;;;;;;;;;;;;;;;21.28;54.12;98146.25;5070603;28;19925;-90
2021/08/05 02:12:14;;;;;;;;;;;;;;;21.18;55.05;98145.28;5070726;28;20392;-89
2021/08/05 02:14:39;;;;;;;;;;;;;;;21.09;55.65;98158.53;5072026;28;19920;-90
2021/08/05 02:17:07;;;;;;;;;;;;;;;21.10;55.86;98165.69;5069943;28;19971;-89
2021/08/05 02:19:34;;;;;;;;;;;;;;;21.26;55.65;98177.97;5071692;28;19989;-90
2021/08/05 02:22:00;;;;;;;;;;;;;;;21.27;56.43;98182.38;5072195;28;19920;-91
2021/08/05 02:24:30;;;;;;;;;;;;;;;21.19;56.82;98191.13;5071650;28;20332;-90
2021/08/05 02:26:56;;;;;;;;;;;;;;;21.23;57.08;98180.91;5075116;28;20336;-91
2021/08/05 02:29:22;;;;;;;;;;;;;;;21.21;57.28;98172.03;5075502;28;19920;-88
2021/08/05 02:31:49;;;;;;;;;;;;;;;21.32;56.99;98163.97;5072343;28;19924;-89
2021/08/05 02:34:15;;;;;;;;;;;;;;;21.26;57.12;98157.19;5075462;28;20025;-89
2021/08/05 02:36:43;;;;;;;;;;;;;;;21.13;58.34;98145.66;5075697;28;19921;-88
2021/08/05 02:39:08;;;;;;;;;;;;;;;21.23;58.30;98145.75;5074919;28;19924;-89
2021/08/05 02:41:34;;;;;;;;;;;;;;;21.32;58.09;98135.06;5074816;28;19920;-90
2021/08/05 02:44:00;;;;;;;;;;;;;;;21.36;58.05;98121.28;5075335;28;19962;-88
2021/08/05 02:46:25;;;;;;;;;;;;;;;21.38;58.31;98120.16;5071902;28;19924;-89
2021/08/05 02:48:51;;;;;;;;;;;;;;;21.37;58.37;98142.78;5075272;28;20381;-90
2021/08/05 02:51:17;;;;;;;;;;;;;;;21.32;58.73;98153.13;5075433;28;20350;-90
2021/08/05 02:53:44;;;;;;;;;;;;;;;21.30;58.70;98152.41;5075167;28;20387;-90
2021/08/05 02:56:10;;;;;;;;;;;;;;;21.26;58.73;98143.66;5074666;28;20388;-88
2021/08/05 02:58:36;;;;;;;;;;;;;;;21.26;59.13;98137.41;5073509;28;19970;-89
2021/08/05 03:01:01;;;;;;;;;;;;;;;21.23;58.61;98145.75;5071884;28;19920;-91
2021/08/05 03:03:27;;;;;;;;;;;;;;;21.17;59.28;98159.78;5074720;28;19920;-89
2021/08/05 03:05:55;;;;;;;;;;;;;;;21.06;59.65;98172.31;5074772;28;19974;-90
2021/08/05 03:08:21;;;;;;;;;;;;;;;20.98;59.82;98174.75;5074187;28;20361;-89
2021/08/05 03:10:48;;;;;;;;;;;;;;;21.00;59.77;98177.34;5074360;28;19920;-90
2021/08/05 03:13:15;;;;;;;;;;;;;;;20.94;60.19;98184.09;5074498;28;19974;-89
2021/08/05 03:15:41;;;;;;;;;;;;;;;21.00;60.22;98190.88;5071751;28;20291;-91
2021/08/05 03:18:07;;;;;;;;;;;;;;;20.96;60.79;98182.13;5074488;28;19920;-89
2021/08/05 03:20:32;;;;;;;;;;;;;;;21.00;61.14;98185.47;5074462;28;20317;-89
2021/08/05 03:22:59;;;;;;;;;;;;;;;20.90;61.39;98180.75;5075146;28;19990;-87
2021/08/05 03:25:24;;;;;;;;;;;;;;;20.87;61.80;98181.00;5074748;28;20412;-88
2021/08/05 03:27:51;;;;;;;;;;;;;;;20.88;61.79;98171.94;5074447;28;19924;-88
2021/08/05 03:30:17;;;;;;;;;;;;;;;20.91;61.81;98168.97;5071521;28;19955;-90
2021/08/05 03:32:42;;;;;;;;;;;;;;;20.92;62.05;98172.53;5075088;28;19960;-88
2021/08/05 03:35:08;;;;;;;;;;;;;;;20.88;62.15;98177.34;5074508;28;19931;-89
2021/08/05 03:37:34;;;;;;;;;;;;;;;20.86;62.40;98175.72;5074084;28;19927;-90
2021/08/05 03:39:59;;;;;;;;;;;;;;;20.76;63.07;98182.84;5074314;28;20289;-88
2021/08/05 03:42:27;;;;;;;;;;;;;;;20.65;63.45;98181.84;5074183;28;20024;-89
2021/08/05 03:44:55;;;;;;;;;;;;;;;20.68;63.35;98178.03;5074229;28;19920;-89
2021/08/05 03:47:21;;;;;;;;;;;;;;;20.56;63.61;98187.03;5074039;28;19920;-89
2021/08/05 03:49:46;;;;;;;;;;;;;;;20.54;63.75;98173.66;5074303;28;20445;-89
2021/08/05 03:52:15;;;;;;;;;;;;;;;20.56;63.59;98169.00;5074337;28;19924;-89
2021/08/05 03:54:40;;;;;;;;;;;;;;;20.60;63.60;98172.34;5071543;28;19920;-90
2021/08/05 03:57:06;;;;;;;;;;;;;;;20.56;63.79;98169.00;5073684;28;19927;-88
2021/08/05 03:59:32;;;;;;;;;;;;;;;20.62;64.04;98176.66;5073635;28;19952;-90
2021/08/05 04:01:57;;;;;;;;;;;;;;;;;;5071415;28;20632;-89
2021/08/05 04:04:24;;;;;;;;;;;;;;;20.41;65.12;98172.91;5073750;28;19912;-89
2021/08/05 04:06:49;;;;;;;;;;;;;;;20.37;65.61;98166.00;5073583;28;19946;-89
2021/08/05 04:09:17;;;;;;;;;;;;;;;20.36;65.45;98167.81;5073855;28;19928;-88
2021/08/05 04:11:42;;;;;;;;;;;;;;;20.42;65.54;98174.59;5073858;28;19920;-88
2021/08/05 04:14:08;;;;;;;;;;;;;;;20.39;65.90;98170.31;5073714;28;19924;-88
2021/08/05 04:16:34;;;;;;;;;;;;;;;20.34;66.11;98163.53;5071340;28;19921;-88
2021/08/05 04:19:00;;;;;;;;;;;;;;;20.24;66.42;98163.38;5073499;28;19921;-89
2021/08/05 04:21:26;;;;;;;;;;;;;;;20.28;67.08;98165.72;5073670;28;20309;-88
2021/08/05 04:23:52;;;;;;;;;;;;;;;20.30;66.01;98158.38;5073572;28;19971;-88
2021/08/05 04:26:17;;;;;;;;;;;;;;;20.28;66.23;98164.88;5073083;28;20378;-89
2021/08/05 04:28:43;;;;;;;;;;;;;;;20.29;66.04;98171.97;5073547;28;19920;-88
2021/08/05 04:31:08;;;;;;;;;;;;;;;20.24;66.10;98176.88;5071156;28;19955;-90
2021/08/05 04:33:34;;;;;;;;;;;;;;;20.25;65.56;98171.34;5073267;28;19970;-89
2021/08/05 04:38:58;;;;;;;;;;;;;;;20.30;64.81;98189.94;5119754;27;19916;-90
2021/08/05 04:41:24;;;;;;;;;;;;;;;20.28;64.96;98200.84;5116901;28;19927;-88
2021/08/05 04:43:51;;;;;;;;;;;;;;;20.29;64.80;98201.69;5120811;28;20022;-87
2021/08/05 04:46:17;;;;;;;;;;;;;;;20.30;64.76;98203.44;5117737;28;20401;-88
2021/08/05 04:48:42;;;;;;;;;;;;;;;20.26;65.02;98208.19;5120793;28;19927;-88
2021/08/05 04:51:08;;;;;;;;;;;;;;;20.23;64.74;98197.63;5122273;28;19927;-88
2021/08/05 04:53:34;;;;;;;;;;;;;;;20.22;64.47;98195.03;5117812;27;21313;-87
2021/08/05 04:56:02;;;;;;;;;;;;;;;20.21;63.73;98193.28;5119092;28;19928;-88
2021/08/05 04:58:27;;;;;;;;;;;;;;;20.22;63.61;98200.44;5122014;28;19924;-89
2021/08/05 05:00:53;;;;;;;;;;;;;;;20.26;62.78;98205.47;5118205;27;19949;-86
2021/08/05 05:03:18;;;;;;;;;;;;;;;20.31;62.59;98205.97;5120744;27;19924;-88
2021/08/05 05:05:44;;;;;;;;;;;;;;;20.36;62.14;98202.94;5121830;27;19973;-88
2021/08/05 05:08:30;;;;;;;;;;;;;;;20.38;61.81;98198.28;5120763;28;20034;-89
2021/08/05 05:10:58;;;;;;;;;;;;;;;20.45;61.91;98198.66;5114287;28;19924;-88
2021/08/05 05:13:25;;;;;;;;;;;;;;;20.53;61.54;98201.66;5112317;28;20015;-90
2021/08/05 05:15:51;;;;;;;;;;;;;;;20.74;60.88;98201.88;5117821;28;19924;-88
2021/08/05 05:18:19;;;;;;;;;;;;;;;21.11;59.42;98205.22;5118388;27;19980;-88
2021/08/05 05:20:45;;;;;;;;;;;;;;;21.49;58.41;98190.53;5119230;28;20270;-88
2021/08/05 05:23:10;;;;;;;;;;;;;;;21.70;57.26;98187.91;5119751;28;19924;-88
2021/08/05 05:25:37;;;;;;;;;;;;;;;21.96;56.87;98184.88;5119270;28;19981;-88
2021/08/05 05:28:03;;;;;;;;;;;;;;;22.18;56.07;98183.94;5119740;28;19930;-89
2021/08/05 05:30:30;;;;;;;;;;;;;;;22.36;55.00;98192.44;5118946;28;19924;-89
2021/08/05 05:32:55;;;;;;;;;;;;;;;22.46;54.62;98178.94;5120537;28;20334;-87
2021/08/05 05:38:18;;;;;;;;;;;;;;;22.59;54.23;98178.75;5131156;27;19915;-88
2021/08/05 05:40:47;;;;;;;;;;;;;;;22.58;54.13;98180.63;5130321;28;20397;-88
2021/08/05 05:43:12;;;;;;;;;;;;;;;22.32;54.67;98183.69;5131523;27;19927;-89
2021/08/05 05:45:39;;;;;;;;;;;;;;;22.52;54.47;98178.41;5128734;28;19992;-89
2021/08/05 05:51:02;;;;;;;;;;;;;;;22.77;53.97;98178.03;5131123;27;19961;-87
2021/08/05 05:53:28;;;;;;;;;;;;;;;22.86;53.48;98170.09;5129790;28;19950;-87
2021/08/05 05:55:55;;;;;;;;;;;;;;;22.78;53.62;98178.88;5132562;27;20443;-88
2021/08/05 05:58:22;;;;;;;;;;;;;;;22.87;52.98;98180.78;5130960;28;19923;-88
2021/08/05 06:00:47;;;;;;;;;;;;;;;22.73;53.26;98171.16;5129363;27;19931;-89
2021/08/05 06:03:15;;;;;;;;;;;;;;;22.76;53.35;98178.16;5133806;28;19985;-91
2021/08/05 06:05:40;;;;;;;;;;;;;;;22.91;53.35;98186.81;5132505;27;19979;-89
2021/08/05 06:08:07;;;;;;;;;;;;;;;23.00;52.73;98183.31;5132835;28;20665;-88
2021/08/05 06:10:33;;;;;;;;;;;;;;;23.20;52.04;98189.69;5131368;28;19927;-90
2021/08/05 06:12:58;;;;;;;;;;;;;;;23.24;52.38;98190.31;5132726;27;19931;-91
2021/08/05 06:15:24;;;;;;;;;;;;;;;23.05;52.11;98186.50;5130266;27;19938;-91
2021/08/05 06:17:49;;;;;;;;;;;;;;;22.94;54.09;98194.66;5132633;28;19973;-92
2021/08/05 06:20:16;;;;;;;;;;;;;;;22.98;52.73;98188.84;5132022;28;20300;-90
2021/08/05 06:22:42;;;;;;;;;;;;;;;23.25;52.26;98183.88;5130008;28;19928;-89
2021/08/05 06:25:11;;;;;;;;;;;;;;;23.14;52.22;98187.56;5132138;27;19934;-90
2021/08/05 06:27:37;;;;;;;;;;;;;;;23.40;52.09;98187.06;5132061;27;20016;-89
2021/08/05 06:30:03;;;;;;;;;;;;;;;23.64;51.82;98184.91;5128787;28;19931;-90
2021/08/05 06:32:29;;;;;;;;;;;;;;;23.88;51.11;98187.28;5130747;28;19923;-89
2021/08/05 06:34:54;;;;;;;;;;;;;;;23.94;50.85;98192.16;5131479;28;19930;-89
2021/08/05 06:37:19;;;;;;;;;;;;;;;24.04;51.03;98188.59;5131198;28;19927;-90
2021/08/05 06:39:45;;;;;;;;;;;;;;;24.02;50.52;98187.84;5131461;28;19957;-90
2021/08/05 06:42:12;;;;;;;;;;;;;;;24.22;49.85;98194.16;5130015;27;19931;-90
2021/08/05 06:44:38;;;;;;;;;;;;;;;24.36;49.41;98197.31;5131263;28;19924;-90
2021/08/05 06:47:05;;;;;;;;;;;;;;;23.88;50.39;98198.13;5126894;28;19923;-89
2021/08/05 06:49:34;;;;;;;;;;;;;;;24.16;49.95;98191.03;5130034;27;19924;-88
2021/08/05 06:52:00;;;;;;;;;;;;;;;24.36;49.64;98193.75;5130582;27;20014;-88
2021/08/05 06:54:26;;;;;;;;;;;;;;;24.75;48.63;98196.50;5130591;28;20022;-87
2021/08/05 06:56:51;;;;;;;;;;;;;;;24.61;48.69;98192.34;5129910;28;19966;-88
2021/08/05 06:59:19;;;;;;;;;;;;;;;23.99;50.89;98194.44;5129227;28;19928;-87
2021/08/05 07:01:46;;;;;;;;;;;;;;;23.61;51.13;98197.88;5118040;27;19924;-88
2021/08/05 07:04:11;;;;;;;;;;;;;;;23.78;50.05;98194.53;5117309;28;19924;-89
2021/08/05 07:06:37;;;;;;;;;;;;;;;23.86;49.97;98191.13;5117002;28;19930;-88
2021/08/05 07:09:02;;;;;;;;;;;;;;;24.11;47.03;98192.44;5116661;28;19931;-91
2021/08/05 07:11:28;;;;;;;;;;;;;;;23.58;47.75;98190.88;5116605;28;19996;-90
2021/08/05 07:13:53;;;;;;;;;;;;;;;23.87;48.07;98190.97;5116670;28;19931;-90
2021/08/05 07:16:20;;;;;;;;;;;;;;;23.81;48.08;98180.66;5112684;28;20293;-90
2021/08/05 07:18:46;;;;;;;;;;;;;;;24.31;46.18;98177.00;5116773;27;19936;-92
2021/08/05 07:21:11;;;;;;;;;;;;;;;24.33;45.02;98189.47;5116691;28;20416;-90
2021/08/05 07:23:37;;;;;;;;;;;;;;;24.49;44.94;98178.06;5116420;28;19932;-91
2021/08/05 07:26:02;;;;;;;;;;;;;;;24.71;44.90;98192.34;5117152;28;19974;-89
2021/08/05 07:28:28;;;;;;;;;;;;;;;24.95;43.64;98183.69;5116720;28;19928;-91
2021/08/05 07:30:54;;;;;;;;;;;;;;;24.49;44.46;98179.91;5112474;28;19977;-91
2021/08/05 07:33:21;;;;;;;;;;;;;;;24.57;44.27;98180.91;5115272;27;20352;-89
2021/08/05 07:35:46;;;;;;;;;;;;;;;24.64;44.64;98177.63;5116747;28;19928;-90
2021/08/05 07:38:12;;;;;;;;;;;;;;;24.42;44.88;98165.13;5117365;28;19924;-90
2021/08/05 07:40:37;;;;;;;;;;;;;;;24.82;43.91;98173.13;5115669;28;19963;-90
2021/08/05 07:43:03;;;;;;;;;;;;;;;24.60;44.47;98183.31;5115232;28;19923;-91
2021/08/05 07:45:28;;;;;;;;;;;;;;;24.57;44.69;98171.88;5112191;28;20042;-92
2021/08/05 07:47:54;;;;;;;;;;;;;;;24.80;44.43;98176.00;5113761;28;19923;-92
2021/08/05 07:50:21;;;;;;;;;;;;;;;24.93;44.43;98178.41;5114835;28;20300;-90
2021/08/05 07:52:46;;;;;;;;;;;;;;;24.82;43.34;98175.84;5115383;28;19924;-93
2021/08/05 07:55:12;;;;;;;;;;;;;;;24.95;43.38;98178.25;5114376;28;20454;-89
2021/08/05 07:57:38;;;;;;;;;;;;;;;24.99;44.11;98174.25;5113200;28;20180;-90
2021/08/05 08:00:04;;;;;;;;;;;;;;;24.85;44.30;98180.13;5112197;28;19923;-91
2021/08/05 08:02:29;;;;;;;;;;;;;;;25.03;44.36;98178.41;5115643;28;19924;-91
2021/08/05 08:04:55;;;;;;;;;;;;;;;25.00;44.51;98190.44;5115631;28;20351;-91
2021/08/05 08:07:22;;;;;;;;;;;;;;;25.17;44.52;98175.19;5112032;28;19924;-89
2021/08/05 08:09:47;;;;;;;;;;;;;;;25.09;44.31;98182.38;5113302;28;19928;-90
2021/08/05 08:12:13;;;;;;;;;;;;;;;24.74;45.60;98179.28;5113297;28;19924;-91
2021/08/05 08:14:38;;;;;;;;;;;;;;;25.13;45.13;98183.78;5113370;28;20773;-91
2021/08/05 08:17:04;;;;;;;;;;;;;;;25.40;44.71;98170.25;5112420;28;19934;-90
2021/08/05 08:19:30;;;;;;;;;;;;;;;24.92;45.55;98184.84;5114458;27;20355;-90
2021/08/05 08:21:55;;;;;;;;;;;;;;;25.09;45.38;98176.94;5116264;28;19931;-90
2021/08/05 08:24:23;;;;;;;;;;;;;;;25.41;44.14;98182.00;5115831;28;20381;-91
2021/08/05 08:26:49;;;;;;;;;;;;;;;25.62;44.27;98174.44;5115397;28;20082;-90
2021/08/05 08:29:14;;;;;;;;;;;;;;;25.85;43.70;98184.94;5114129;28;19924;-89
2021/08/05 08:31:40;;;;;;;;;;;;;;;25.75;43.59;98178.69;5111118;28;19977;-91
2021/08/05 08:34:05;;;;;;;;;;;;;;;25.70;43.58;98198.22;5114028;28;19951;-88
2021/08/05 08:36:31;;;;;;;;;;;;;;;25.66;43.26;98191.34;5114478;28;20373;-90
2021/08/05 08:38:58;;;;;;;;;;;;;;;25.53;43.75;98194.41;5115984;28;19985;-92
2021/08/05 08:41:25;;;;;;;;;;;;;;;25.82;43.00;98196.13;5116050;27;19923;-91
2021/08/05 08:43:51;;;;;;;;;;;;;;;25.99;42.78;98195.34;5115966;28;19923;-89
2021/08/05 08:46:20;;;;;;;;;;;;;;;26.36;42.61;98194.34;5112440;28;19953;-89
2021/08/05 08:48:47;;;;;;;;;;;;;;;26.55;41.12;98198.78;5113106;28;19935;-90
2021/08/05 08:51:12;;;;;;;;;;;;;;;26.57;41.91;98193.22;5113424;28;19969;-91
2021/08/05 08:53:39;;;;;;;;;;;;;;;26.19;42.32;98192.47;5110914;28;19928;-92
2021/08/05 08:56:06;;;;;;;;;;;;;;;26.38;42.13;98186.88;5112212;28;19977;-89
2021/08/05 08:58:33;;;;;;;;;;;;;;;26.76;41.69;98178.53;5107762;28;19936;-89
2021/08/05 09:00:58;;;;;;;;;;;;;;;26.34;41.72;98174.56;5105804;28;20035;-91
2021/08/05 09:03:24;;;;;;;;;;;;;;;26.32;41.97;98192.09;5112634;28;19970;-93
2021/08/05 09:05:49;;;;;;;;;;;;;;;26.38;41.93;98184.16;5112384;28;19928;-89
2021/08/05 09:08:15;;;;;;;;;;;;;;;26.87;41.20;98196.50;5113327;28;20293;-88
2021/08/05 09:10:41;;;;;;;;;;;;;;;26.98;40.48;98188.94;5108706;28;19932;-93
2021/08/05 09:13:09;;;;;;;;;;;;;;;26.43;40.78;98187.25;5111522;28;19928;-90
2021/08/05 09:15:37;;;;;;;;;;;;;;;26.88;39.57;98177.28;5110506;28;20490;-89
2021/08/05 09:18:03;;;;;;;;;;;;;;;26.91;38.98;98185.13;5110046;28;19963;-90
2021/08/05 09:20:29;;;;;;;;;;;;;;;27.20;38.61;98182.09;5112215;28;19927;-90
2021/08/05 09:22:55;;;;;;;;;;;;;;;26.88;39.82;98187.34;5113641;28;19924;-89
2021/08/05 09:25:22;;;;;;;;;;;;;;;26.90;39.66;98190.75;5111291;27;20357;-91
2021/08/05 09:27:48;;;;;;;;;;;;;;;27.15;38.73;98189.03;5112562;28;19930;-94
2021/08/05 09:30:26;;;;;;;;;;;;;;;27.11;39.63;98184.91;5107292;28;20696;-90
2021/08/05 09:32:53;;;;;;;;;;;;;;;27.60;38.52;98188.81;5107044;28;19928;-89
2021/08/05 09:35:18;;;;;;;;;;;;;;;27.31;38.81;98193.78;5109717;28;19959;-91
2021/08/05 09:37:44;;;;;;;;;;;;;;;27.13;39.47;98193.78;5107447;28;19978;-91
2021/08/05 09:40:10;;;;;;;;;;;;;;;27.30;39.82;98189.34;5111549;28;19924;-90
2021/08/05 09:42:36;;;;;;;;;;;;;;;27.53;38.08;98187.75;5112702;28;19928;-90
2021/08/05 09:45:02;;;;;;;;;;;;;;;27.15;38.24;98195.38;5112297;28;19977;-91
2021/08/05 09:47:27;;;;;;;;;;;;;;;27.21;38.33;98188.41;5111775;28;19927;-90
2021/08/05 09:49:58;;;;;;;;;;;;;;;26.71;39.15;98195.38;5111971;28;19924;-91
2021/08/05 09:52:25;;;;;;;;;;;;;;;26.65;38.63;98182.38;5109287;28;19930;-92
2021/08/05 09:54:51;;;;;;;;;;;;;;;26.39;39.49;98177.72;5114022;28;19941;-89
2021/08/05 09:57:22;;;;;;;;;;;;;;;26.62;37.64;98182.69;5113544;28;20436;-89
2021/08/05 09:59:54;;;;;;;;;;;;;;;27.33;36.00;98159.84;5108130;28;19924;-91
2021/08/05 10:02:20;;;;;;;;;;;;;;;27.71;34.76;98148.56;5110844;28;20381;-90
2021/08/05 10:04:46;;;;;;;;;;;;;;;27.94;33.70;98165.25;5111612;28;19931;-93
2021/08/05 10:07:14;;;;;;;;;;;;;;;27.31;32.59;98155.56;5112081;28;19928;-90
2021/08/05 10:09:41;;;;;;;;;;;;;;;27.36;34.03;98153.19;5114528;28;20015;-91
2021/08/05 10:12:11;;;;;;;;;;;;;;;28.13;33.14;98147.66;5114147;28;19924;-91
2021/08/05 10:14:37;;;;;;;;;;;;;;;27.76;34.70;98137.97;5109531;28;19935;-90
2021/08/05 10:17:04;;;;;;;;;;;;;;;27.41;34.82;98148.97;5108954;28;19928;-90
2021/08/05 10:19:34;;;;;;;;;;;;;;;27.32;35.36;98140.88;5113898;28;19977;-91
2021/08/05 10:21:59;;;;;;;;;;;;;;;27.12;35.47;98152.00;5112848;28;19928;-90
2021/08/05 10:24:26;;;;;;;;;;;;;;;26.78;35.83;98139.19;5113130;28;19989;-91
2021/08/05 10:26:52;;;;;;;;;;;;;;;27.33;35.45;98140.72;5111805;28;19938;-93
2021/08/05 10:29:17;;;;;;;;;;;;;;;28.17;34.67;98157.25;5111720;28;19924;-91
2021/08/05 10:31:44;;;;;;;;;;;;;;;28.05;34.09;98143.91;5108838;28;19930;-90
2021/08/05 10:34:10;;;;;;;;;;;;;;;27.70;34.36;98139.50;5110430;28;19973;-90
2021/08/05 10:36:36;;;;;;;;;;;;;;;27.58;34.86;98132.63;5109918;28;20293;-88
2021/08/05 10:39:02;;;;;;;;;;;;;;;27.54;35.18;98155.81;5113067;28;19923;-90
2021/08/05 10:41:31;;;;;;;;;;;;;;;27.17;33.68;98127.84;5116892;28;19930;-89
2021/08/05 10:43:57;;;;;;;;;;;;;;;27.07;34.36;98142.63;5116030;28;19931;-91
2021/08/05 10:46:24;;;;;;;;;;;;;;;27.14;34.45;98130.88;5110946;28;20486;-89
2021/08/05 10:48:50;;;;;;;;;;;;;;;27.56;35.11;98123.75;5112399;28;19976;-89
2021/08/05 10:51:16;;;;;;;;;;;;;;;27.78;33.38;98123.16;5110550;28;20323;-89
2021/08/05 10:53:45;;;;;;;;;;;;;;;28.16;32.87;98114.53;5114536;28;20027;-90
2021/08/05 10:56:18;;;;;;;;;;;;;;;27.78;33.75;98116.81;5117441;28;19924;-90
2021/08/05 10:59:01;;;;;;;;;;;;;;;28.23;33.52;98119.13;5117836;28;19924;-90
2021/08/05 11:01:42;;;;;;;;;;;;;;;28.37;33.20;98109.44;5113308;28;19930;-92
2021/08/05 11:04:09;;;;;;;;;;;;;;;27.54;34.81;98118.47;5112850;28;19924;-94
2021/08/05 11:06:34;;;;;;;;;;;;;;;27.94;34.02;98105.97;5117678;27;19924;-93
2021/08/05 11:09:21;;;;;;;;;;;;;;;28.04;34.09;98108.53;5116436;28;20552;-91
2021/08/05 11:11:46;;;;;;;;;;;;;;;28.22;34.44;98108.41;5108718;28;20293;-91
2021/08/05 11:14:29;;;;;;;;;;;;;;;28.44;33.50;98112.31;5115263;28;19924;-94
2021/08/05 11:17:06;;;;;;;;;;;;;;;28.79;32.47;98100.19;5108021;28;19924;-92
2021/08/05 11:19:32;;;;;;;;;;;;;;;28.96;32.25;98097.41;5115976;28;19988;-93
2021/08/05 11:22:18;;;;;;;;;;;;;;;28.76;32.14;98102.44;5115300;28;20395;-92
2021/08/05 11:24:52;;;;;;;;;;;;;;;28.09;33.69;98110.78;5115112;28;19930;-90
2021/08/05 11:27:18;;;;;;;;;;;;;;;28.01;33.78;98098.78;5115078;28;19928;-91
2021/08/05 11:29:48;;;;;;;;;;;;;;;28.20;35.18;98107.72;5113387;28;20068;-91
2021/08/05 11:32:32;;;;;;;;;;;;;;;28.34;33.87;98109.75;5115321;27;20452;-91
2021/08/05 11:35:01;;;;;;;;;;;;;;;28.41;33.21;98112.66;5114661;28;19927;-91
2021/08/05 11:37:27;;;;;;;;;;;;;;;28.10;33.79;98124.25;5114873;27;20396;-90
2021/08/05 11:39:54;;;;;;;;;;;;;;;27.94;33.56;98118.78;5115110;28;19927;-90
2021/08/05 11:42:20;;;;;;;;;;;;;;;27.64;34.94;98116.44;5114364;28;19924;-92
2021/08/05 11:44:46;;;;;;;;;;;;;;;27.65;34.87;98123.63;5113263;28;19932;-92
2021/08/05 11:47:14;;;;;;;;;;;;;;;27.86;34.93;98109.53;5113817;28;19924;-90
2021/08/05 11:49:41;;;;;;;;;;;;;;;27.95;34.40;98121.31;5112650;28;19928;-94
2021/08/05 11:52:08;;;;;;;;;;;;;;;28.12;34.15;98099.50;5114443;28;20300;-90
2021/08/05 11:54:34;;;;;;;;;;;;;;;28.00;34.23;98105.28;5113725;28;20390;-90
2021/08/05 11:57:00;;;;;;;;;;;;;;;27.47;33.84;98100.16;5114649;28;19970;-92
2021/08/05 11:59:35;;;;;;;;;;;;;;;27.38;34.59;98112.94;5113870;28;19950;-90
2021/08/05 12:02:08;;;;;;;;;;;;;;;26.98;35.98;98100.78;5110656;28;19924;-92
2021/08/05 12:04:34;;;;;;;;;;;;;;;27.21;35.81;98104.66;5115022;28;19927;-93
2021/08/05 12:07:18;;;;;;;;;;;;;;;27.54;35.14;98096.63;5113077;28;19934;-90
2021/08/05 12:09:47;;;;;;;;;;;;;;;27.68;34.94;98091.53;5114162;28;19923;-91
2021/08/05 12:12:13;;;;;;;;;;;;;;;27.85;34.55;98087.84;5116659;28;19924;-91
2021/08/05 12:14:45;;;;;;;;;;;;;;;27.70;34.97;98086.75;5115840;28;19932;-92
2021/08/05 12:17:10;;;;;;;;;;;;;;;27.59;34.24;98105.16;5114406;28;20367;-92
2021/08/05 12:19:41;;;;;;;;;;;;;;;27.58;33.86;98092.50;5113482;28;20035;-91
2021/08/05 12:22:06;;;;;;;;;;;;;;;28.35;33.81;98088.75;5112226;28;19923;-91
2021/08/05 12:24:41;;;;;;;;;;;;;;;28.29;31.73;98094.91;5113338;28;20556;-90
2021/08/05 12:27:08;;;;;;;;;;;;;;;28.42;32.12;98087.03;5113094;28;19924;-90
2021/08/05 12:29:33;;;;;;;;;;;;;;;28.19;32.20;98084.13;5113413;28;21126;-91
2021/08/05 12:32:05;;;;;;;;;;;;;;;28.45;32.08;98094.88;5110549;28;19935;-94
2021/08/05 12:34:30;;;;;;;;;;;;;;;28.24;31.73;98096.25;5113132;28;20441;-91
2021/08/05 12:37:13;;;;;;;;;;;;;;;27.74;32.37;98086.25;5113648;28;19927;-92
2021/08/05 12:39:38;;;;;;;;;;;;;;;28.29;32.47;98062.94;5111843;28;20347;-91
2021/08/05 12:44:18;;;;;;;4.50;2.28;;;;;;;28.50;31.22;98080.72;5119579;27;20377;-90
2021/08/05 12:46:47;;;;;;;6.60;2.33;;;;;;;28.27;31.28;98065.84;5117488;27;20051;-92
2021/08/05 12:49:13;;;;;;;5.55;2.40;;;;;;;28.60;31.07;98065.84;5120827;27;20550;-90
2021/08/05 12:51:40;;;;;;;6.40;2.50;;;;;;;28.45;30.82;98059.31;5122544;28;20385;-90
2021/08/05 12:54:13;;;;;;;16.48;3.78;;;;;;;28.11;30.94;98043.13;5117416;27;20505;-92
2021/08/05 12:56:40;;;;;;;5.00;2.78;;;;;;;28.17;30.80;98047.88;5115476;28;20519;-91